Saint Aubin/Jersey Island, United Kingdom
Current Conditions -  °F | °C
As of 6:20 AM on Wednesday 26 Nov 2014 (Local Time) from EGJB Reporting Station
Drizzle Drizzle  
Wind Chill: 52°   Ceiling: 800
Heat Index: 52°   Visibility: 0.87mi
Dew Point: 52°   Wind: 0mph
Humidity: 100%   Direction: NA
Pressure: 29.85"   Gusts: NA
Location:  49.25°N, 2.75°W
Report Text: EGJB 260520Z 00000KT 1400 -DZ BR FEW000 BKN008 11/11 Q1011 REDZ
Loading
Personal Weather Stations






























Interactive Weather Map New forecast layout! Learn more

10-Day Weather Forecast

Advertisements
Track Severe Weather on mobile